createdAt,value
2023-04-18T00:02:07.069Z,8.88
2023-04-18T00:04:36.311Z,9.12
2023-04-18T00:07:03.983Z,9.35
2023-04-18T00:09:31.619Z,9.37
2023-04-18T00:11:59.285Z,9.08
2023-04-18T00:14:28.920Z,9.58
2023-04-18T00:16:57.214Z,9.38
2023-04-18T00:19:24.879Z,8.82
2023-04-18T00:21:53.990Z,9.01
2023-04-18T00:24:22.080Z,8.86
2023-04-18T00:26:49.887Z,9.11
2023-04-18T00:29:17.543Z,9.43
2023-04-18T00:31:45.232Z,9.61
2023-04-18T00:34:13.116Z,10.26
2023-04-18T00:36:40.913Z,9.11
2023-04-18T00:39:09.876Z,9.48
2023-04-18T00:41:37.530Z,8.94
2023-04-18T00:44:05.339Z,9.15
2023-04-18T00:46:33.190Z,9.25
2023-04-18T00:49:01.031Z,9.25
2023-04-18T00:51:29.125Z,8.39
2023-04-18T00:53:56.976Z,8.80
2023-04-18T00:56:26.685Z,9.23
2023-04-18T00:58:54.636Z,8.98
2023-04-18T01:01:22.340Z,8.86
2023-04-18T01:03:50.133Z,9.52
2023-04-18T01:06:18.674Z,9.67
2023-04-18T01:08:46.637Z,9.42
2023-04-18T01:11:14.280Z,9.28
2023-04-18T01:13:43.293Z,9.23
2023-04-18T01:16:10.962Z,8.84
2023-04-18T01:18:40.189Z,8.76
2023-04-18T01:21:08.248Z,9.07
2023-04-18T01:23:36.533Z,9.53
2023-04-18T01:26:05.726Z,9.14
2023-04-18T01:28:37.913Z,8.93
2023-04-18T01:31:05.768Z,8.62
2023-04-18T01:33:33.443Z,8.63
2023-04-18T01:36:01.069Z,8.45
2023-04-18T01:38:28.746Z,9.18
2023-04-18T01:40:56.366Z,9.21
2023-04-18T01:43:25.359Z,8.85
2023-04-18T01:45:53.022Z,8.93
2023-04-18T01:48:20.694Z,8.41
2023-04-18T01:50:48.311Z,8.49
2023-04-18T01:53:17.557Z,8.88
2023-04-18T01:55:45.193Z,8.58
2023-04-18T01:58:12.782Z,8.47
2023-04-18T02:00:41.784Z,8.43
2023-04-18T02:03:09.561Z,8.46
2023-04-18T02:05:37.567Z,8.91
2023-04-18T02:08:05.743Z,8.17
2023-04-18T02:10:33.397Z,8.71
2023-04-18T02:13:01.034Z,8.83
2023-04-18T02:15:28.678Z,9.06
2023-04-18T02:18:00.198Z,9.07
2023-04-18T02:20:31.581Z,8.65
2023-04-18T02:22:59.303Z,8.61
2023-04-18T02:25:28.839Z,8.72
2023-04-18T02:27:58.030Z,8.17
2023-04-18T02:30:26.302Z,8.10
2023-04-18T02:32:54.723Z,8.16
2023-04-18T02:35:24.754Z,7.99
2023-04-18T02:37:52.859Z,8.72
2023-04-18T02:40:20.787Z,8.23
2023-04-18T02:42:48.466Z,7.97
2023-04-18T02:45:16.409Z,7.97
2023-04-18T02:47:54.434Z,7.96
2023-04-18T02:50:30.132Z,8.05
2023-04-18T02:52:57.932Z,7.69
2023-04-18T02:55:26.887Z,7.82
2023-04-18T02:57:54.609Z,8.76
2023-04-18T03:00:22.436Z,8.18
2023-04-18T03:02:50.526Z,8.33
2023-04-18T03:05:18.333Z,7.99
2023-04-18T03:07:47.305Z,8.30
2023-04-18T03:10:15.097Z,7.89
2023-04-18T03:12:42.895Z,7.90
2023-04-18T03:15:11.458Z,7.89
2023-04-18T03:17:39.159Z,8.29
2023-04-18T03:20:08.000Z,8.21
2023-04-18T03:22:35.653Z,8.40
2023-04-18T03:25:05.050Z,8.04
2023-04-18T03:27:32.661Z,8.21
2023-04-18T03:30:00.576Z,7.78
2023-04-18T03:32:28.364Z,8.07
2023-04-18T03:34:55.984Z,8.48
2023-04-18T03:37:23.613Z,8.60
2023-04-18T03:39:51.248Z,8.97
2023-04-18T03:42:20.219Z,8.54
2023-04-18T03:44:47.829Z,8.85
2023-04-18T03:47:16.785Z,8.03
2023-04-18T03:49:44.423Z,8.66
2023-04-18T03:52:12.114Z,8.44
2023-04-18T03:54:39.772Z,8.13
2023-04-18T03:57:07.401Z,8.51
2023-04-18T03:59:36.398Z,7.53
2023-04-18T04:02:04.238Z,7.80
2023-04-18T04:04:31.949Z,7.40
2023-04-18T04:06:59.947Z,8.00
2023-04-18T04:09:27.535Z,7.98
2023-04-18T04:11:55.215Z,8.04
2023-04-18T04:14:24.510Z,7.88
2023-04-18T04:16:53.573Z,8.67
2023-04-18T04:19:21.182Z,7.77
2023-04-18T04:21:48.813Z,7.58
2023-04-18T04:24:16.811Z,7.50
2023-04-18T04:26:44.621Z,7.35
2023-04-18T04:29:13.770Z,8.27
2023-04-18T04:31:41.535Z,7.36
2023-04-18T04:34:10.498Z,7.97
2023-04-18T04:36:38.164Z,7.68
2023-04-18T04:39:05.795Z,7.82
2023-04-18T04:41:33.545Z,8.39
2023-04-18T04:44:01.810Z,7.15
2023-04-18T04:46:30.354Z,7.57
2023-04-18T04:48:58.157Z,8.01
2023-04-18T04:51:27.992Z,7.54
2023-04-18T04:53:55.682Z,7.34
2023-04-18T04:56:23.639Z,7.84
2023-04-18T04:58:51.312Z,7.77
2023-04-18T05:01:19.094Z,8.35
2023-04-18T05:03:46.920Z,7.45
2023-04-18T05:06:20.484Z,8.03
2023-04-18T05:08:49.900Z,7.83
2023-04-18T05:11:17.931Z,8.27
2023-04-18T05:13:45.556Z,9.70
2023-04-18T05:16:13.255Z,11.33
2023-04-18T05:18:41.479Z,10.06
2023-04-18T05:21:09.357Z,11.15
2023-04-18T05:24:01.274Z,11.23
2023-04-18T05:26:30.365Z,10.57
2023-04-18T05:28:57.955Z,12.55
2023-04-18T05:31:26.785Z,12.50
2023-04-18T05:33:54.467Z,11.67
2023-04-18T05:36:22.817Z,10.29
2023-04-18T05:38:50.684Z,10.17
2023-04-18T05:41:18.328Z,10.68
2023-04-18T05:44:01.850Z,9.91
2023-04-18T05:46:33.114Z,9.37
2023-04-18T05:49:01.133Z,11.00
2023-04-18T05:51:29.228Z,10.64
2023-04-18T05:53:56.877Z,10.06
2023-04-18T05:56:24.483Z,11.00
2023-04-18T05:58:53.454Z,10.93
2023-04-18T06:01:21.339Z,9.90
2023-04-18T06:03:49.144Z,10.53
2023-04-18T06:06:17.057Z,11.44
2023-04-18T06:08:44.661Z,12.31
2023-04-18T06:11:12.622Z,13.47
2023-04-18T06:13:40.519Z,13.60
2023-04-18T06:16:09.740Z,14.23
2023-04-18T06:18:37.436Z,14.66
2023-04-18T06:21:05.358Z,14.06
2023-04-18T06:23:32.988Z,14.22
2023-04-18T06:26:00.763Z,15.00
2023-04-18T06:28:28.434Z,14.81
2023-04-18T06:30:56.099Z,16.75
2023-04-18T06:33:25.116Z,15.33
2023-04-18T06:35:53.287Z,15.23
2023-04-18T06:38:21.397Z,16.32
2023-04-18T06:40:49.015Z,12.76
2023-04-18T06:43:16.664Z,12.67
2023-04-18T06:45:44.494Z,14.38
2023-04-18T06:48:12.195Z,14.60
2023-04-18T06:50:41.334Z,17.43
2023-04-18T06:53:08.960Z,15.47
2023-04-18T06:55:37.064Z,15.57
2023-04-18T06:58:05.694Z,12.87
2023-04-18T07:00:33.422Z,11.44
2023-04-18T07:03:02.118Z,10.87
2023-04-18T07:05:29.838Z,10.69
2023-04-18T07:07:58.840Z,10.78
2023-04-18T07:10:26.452Z,10.82
2023-04-18T07:12:54.076Z,10.36
2023-04-18T07:15:21.701Z,10.95
2023-04-18T07:17:49.588Z,10.41
2023-04-18T07:20:17.368Z,11.20
2023-04-18T07:22:45.856Z,10.88
2023-04-18T07:25:14.814Z,11.54
2023-04-18T07:27:42.532Z,11.60
2023-04-18T07:30:11.106Z,11.71
2023-04-18T07:32:38.892Z,13.70
2023-04-18T07:35:07.773Z,13.51
2023-04-18T07:37:35.942Z,12.10
2023-04-18T07:40:04.128Z,12.66
2023-04-18T07:42:33.216Z,13.50
2023-04-18T07:45:00.827Z,12.65
2023-04-18T07:47:30.762Z,13.35
2023-04-18T07:49:59.220Z,13.69
2023-04-18T07:52:27.207Z,12.08
2023-04-18T07:54:54.857Z,12.78
2023-04-18T07:57:22.496Z,12.26
2023-04-18T07:59:53.737Z,12.43
2023-04-18T08:02:21.711Z,12.99
2023-04-18T08:04:50.039Z,13.13
2023-04-18T08:07:17.956Z,13.37
2023-04-18T08:09:45.892Z,13.98
2023-04-18T08:12:13.503Z,13.48
2023-04-18T08:14:41.272Z,13.89
2023-04-18T08:17:10.280Z,13.19
2023-04-18T08:19:38.014Z,13.10
2023-04-18T08:22:10.636Z,12.96
2023-04-18T08:24:39.295Z,13.47
2023-04-18T08:27:07.350Z,13.90
2023-04-18T08:29:35.024Z,13.92
2023-04-18T08:32:02.818Z,14.08
2023-04-18T08:34:34.031Z,17.13
2023-04-18T08:37:01.765Z,19.13
2023-04-18T08:39:29.610Z,20.87
2023-04-18T08:42:00.446Z,16.30
2023-04-18T08:44:29.241Z,15.06
2023-04-18T08:46:57.550Z,15.78
2023-04-18T08:49:26.213Z,17.68
2023-04-18T08:51:57.507Z,15.24
2023-04-18T08:54:27.148Z,15.12
2023-04-18T08:57:08.768Z,15.14
2023-04-18T08:59:37.043Z,14.77
2023-04-18T09:02:08.734Z,13.71
2023-04-18T09:04:37.890Z,12.47
2023-04-18T09:07:08.751Z,12.30
2023-04-18T09:09:47.050Z,12.10
2023-04-18T09:12:18.142Z,11.70
2023-04-18T09:14:47.902Z,12.15
2023-04-18T09:17:18.206Z,12.54
2023-04-18T09:19:50.299Z,12.21
2023-04-18T09:22:19.312Z,12.52
2023-04-18T09:24:53.170Z,12.98
2023-04-18T09:27:22.928Z,12.97
2023-04-18T09:29:52.306Z,12.20
2023-04-18T09:32:26.799Z,12.06
2023-04-18T09:34:57.861Z,11.88
2023-04-18T09:37:27.346Z,11.69
2023-04-18T09:39:56.685Z,12.61
2023-04-18T09:42:26.159Z,11.71
2023-04-18T09:45:06.613Z,11.83
2023-04-18T09:47:36.344Z,12.20
2023-04-18T09:50:04.837Z,12.45
2023-04-18T09:52:36.574Z,11.79
2023-04-18T09:55:05.824Z,11.66
2023-04-18T09:57:34.752Z,12.46
2023-04-18T10:00:13.883Z,11.58
2023-04-18T10:02:49.867Z,11.71
2023-04-18T10:05:20.971Z,11.96
2023-04-18T10:07:51.591Z,11.85
2023-04-18T10:10:19.658Z,11.78
2023-04-18T10:12:50.503Z,12.22
2023-04-18T10:15:19.217Z,11.87
2023-04-18T10:18:03.594Z,12.01
2023-04-18T10:20:34.653Z,11.88
2023-04-18T10:23:38.326Z,12.47
2023-04-18T10:26:06.825Z,12.30
2023-04-18T10:28:54.757Z,13.16
2023-04-18T10:31:24.036Z,12.89
2023-04-18T10:34:03.767Z,12.06
2023-04-18T10:36:32.405Z,12.02
2023-04-18T10:39:04.581Z,12.87
2023-04-18T10:41:33.097Z,12.38
2023-04-18T10:44:27.046Z,12.61
2023-04-18T10:47:21.741Z,12.39
2023-04-18T10:50:01.106Z,13.70
2023-04-18T10:52:29.798Z,13.75
2023-04-18T10:55:09.660Z,14.27
2023-04-18T10:57:41.519Z,12.83
2023-04-18T11:00:12.481Z,13.28
2023-04-18T11:02:40.549Z,13.09
2023-04-18T11:05:09.753Z,12.87
2023-04-18T11:07:38.928Z,13.70
2023-04-18T11:10:10.324Z,12.78
2023-04-18T11:12:39.439Z,12.82
2023-04-18T11:15:11.878Z,12.55
2023-04-18T11:17:40.764Z,12.96
2023-04-18T11:20:11.245Z,12.73
2023-04-18T11:22:47.978Z,13.35
2023-04-18T11:25:17.401Z,13.08
2023-04-18T11:27:45.737Z,13.83
2023-04-18T11:30:15.012Z,12.77
2023-04-18T11:32:42.792Z,12.70
2023-04-18T11:35:11.994Z,12.67
2023-04-18T11:37:40.658Z,12.72
2023-04-18T11:40:10.774Z,13.14
2023-04-18T11:42:41.409Z,13.02
2023-04-18T11:45:12.853Z,13.70
2023-04-18T11:47:42.362Z,13.42
2023-04-18T11:50:11.545Z,13.25
2023-04-18T11:52:41.128Z,12.98
2023-04-18T11:55:14.669Z,13.13
2023-04-18T11:57:44.157Z,12.65
2023-04-18T12:00:13.479Z,13.63
2023-04-18T12:02:43.132Z,13.31
2023-04-18T12:05:11.754Z,13.22
2023-04-18T12:07:41.571Z,13.35
2023-04-18T12:10:23.628Z,13.30
2023-04-18T12:12:54.387Z,14.02
2023-04-18T12:15:24.037Z,13.70
2023-04-18T12:17:52.392Z,13.48
2023-04-18T12:20:20.291Z,13.58
2023-04-18T12:22:49.556Z,14.38
2023-04-18T12:25:27.756Z,13.61
2023-04-18T12:27:59.110Z,13.78
2023-04-18T12:30:28.806Z,14.54
2023-04-18T12:32:58.248Z,14.26
2023-04-18T12:35:26.660Z,14.91
2023-04-18T12:37:56.112Z,13.96
2023-04-18T12:40:26.156Z,14.11
2023-04-18T12:42:55.347Z,13.59
2023-04-18T12:45:24.791Z,13.77
2023-04-18T12:47:53.572Z,13.73
2023-04-18T12:50:22.759Z,14.21
2023-04-18T12:52:52.126Z,13.83
2023-04-18T12:55:20.091Z,15.22
2023-04-18T12:57:47.762Z,13.79
2023-04-18T13:00:15.540Z,13.93
2023-04-18T13:02:46.224Z,14.29
2023-04-18T13:05:15.695Z,14.67
2023-04-18T13:07:44.157Z,14.28
2023-04-18T13:10:13.358Z,13.77
2023-04-18T13:12:41.908Z,14.91
2023-04-18T13:15:10.564Z,14.34
2023-04-18T13:17:39.186Z,14.55
2023-04-18T13:20:10.817Z,15.09
2023-04-18T13:22:38.714Z,14.30
2023-04-18T13:25:08.174Z,14.65
2023-04-18T13:27:35.843Z,14.43
2023-04-18T13:30:03.803Z,15.47
2023-04-18T13:32:31.572Z,14.23
2023-04-18T13:34:59.227Z,14.05
2023-04-18T13:37:28.244Z,13.98
2023-04-18T13:39:55.891Z,13.58
2023-04-18T13:42:23.546Z,14.38
2023-04-18T13:44:51.181Z,14.53
2023-04-18T13:47:19.552Z,14.79
2023-04-18T13:49:47.320Z,14.77
2023-04-18T13:52:14.982Z,13.97
2023-04-18T13:54:43.982Z,13.52
2023-04-18T13:57:12.368Z,13.82
2023-04-18T13:59:40.911Z,14.20
2023-04-18T14:02:09.517Z,15.16
2023-04-18T14:04:37.845Z,14.38
2023-04-18T14:07:07.974Z,14.14
2023-04-18T14:09:35.687Z,15.40
2023-04-18T14:12:05.122Z,14.64
2023-04-18T14:14:32.791Z,14.74
2023-04-18T14:17:00.492Z,14.30
2023-04-18T14:19:28.363Z,14.98
2023-04-18T14:21:56.009Z,14.77
2023-04-18T14:24:23.637Z,14.63
2023-04-18T14:26:51.349Z,14.37
2023-04-18T14:29:20.334Z,14.33
2023-04-18T14:31:48.027Z,14.73
2023-04-18T14:34:15.773Z,14.46
2023-04-18T14:36:43.452Z,14.86
2023-04-18T14:39:11.342Z,15.07
2023-04-18T14:41:39.145Z,15.36
2023-04-18T14:44:06.821Z,15.64
2023-04-18T14:46:35.817Z,15.11
2023-04-18T14:49:03.491Z,14.79
2023-04-18T14:51:31.189Z,14.49
2023-04-18T14:53:58.822Z,14.98
2023-04-18T14:56:26.527Z,14.96
2023-04-18T14:58:54.202Z,14.46
2023-04-18T15:01:22.006Z,14.21
2023-04-18T15:03:52.503Z,14.80
2023-04-18T15:06:20.258Z,14.82
2023-04-18T15:08:47.878Z,14.53
2023-04-18T15:11:15.518Z,14.11
2023-04-18T15:13:43.097Z,14.28
2023-04-18T15:16:10.825Z,14.24
2023-04-18T15:18:38.465Z,14.54
2023-04-18T15:21:07.508Z,14.16
2023-04-18T15:23:35.192Z,14.78
2023-04-18T15:26:02.922Z,14.49
2023-04-18T15:28:30.613Z,15.28
2023-04-18T15:30:58.232Z,15.27
2023-04-18T15:33:26.009Z,15.14
2023-04-18T15:35:53.756Z,14.60
2023-04-18T15:38:22.748Z,14.27
2023-04-18T15:40:51.092Z,13.74
2023-04-18T15:43:18.947Z,14.63
2023-04-18T15:45:46.904Z,14.56
2023-04-18T15:48:14.667Z,15.19
2023-04-18T15:50:51.018Z,14.42
2023-04-18T15:53:18.781Z,14.37
2023-04-18T15:55:47.846Z,15.06
2023-04-18T15:58:15.496Z,14.58
2023-04-18T16:00:44.329Z,14.55
2023-04-18T16:03:12.232Z,14.92
2023-04-18T16:05:40.077Z,14.19
2023-04-18T16:08:08.876Z,14.07
2023-04-18T16:10:36.539Z,14.86
2023-04-18T16:13:06.649Z,14.18
2023-04-18T16:15:35.528Z,14.64
2023-04-18T16:18:03.229Z,14.76
2023-04-18T16:20:33.184Z,14.15
2023-04-18T16:23:00.841Z,14.50
2023-04-18T16:25:28.585Z,14.93
2023-04-18T16:27:56.237Z,14.87
2023-04-18T16:30:25.261Z,14.27
2023-04-18T16:32:54.238Z,14.41
2023-04-18T16:35:21.993Z,14.23
2023-04-18T16:37:49.707Z,14.27
2023-04-18T16:40:17.378Z,14.57
2023-04-18T16:42:45.039Z,14.05
2023-04-18T16:45:12.636Z,14.40
2023-04-18T16:47:41.694Z,14.62
2023-04-18T16:50:10.236Z,14.58
2023-04-18T16:52:37.983Z,14.73
2023-04-18T16:55:06.701Z,14.67
2023-04-18T16:57:34.519Z,14.28
2023-04-18T17:00:02.768Z,13.82
2023-04-18T17:02:30.669Z,14.75
2023-04-18T17:05:00.017Z,15.01
2023-04-18T17:07:27.757Z,14.46
2023-04-18T17:09:55.365Z,14.20
2023-04-18T17:12:22.984Z,13.75
2023-04-18T17:14:50.697Z,14.01
2023-04-18T17:17:18.320Z,13.41
2023-04-18T17:19:46.541Z,13.65
2023-04-18T17:22:15.501Z,13.56
2023-04-18T17:24:43.199Z,13.75
2023-04-18T17:27:10.893Z,13.91
2023-04-18T17:29:38.578Z,13.95
2023-04-18T17:32:06.833Z,14.01
2023-04-18T17:34:34.537Z,13.57
2023-04-18T17:37:03.045Z,13.98
2023-04-18T17:39:33.570Z,14.21
2023-04-18T17:42:02.056Z,14.15
2023-04-18T17:44:29.949Z,13.97
2023-04-18T17:46:57.644Z,13.64
2023-04-18T17:49:30.657Z,13.35
2023-04-18T17:51:58.281Z,13.95
2023-04-18T17:54:25.974Z,13.40
2023-04-18T17:56:55.004Z,14.04
2023-04-18T17:59:22.629Z,14.64
2023-04-18T18:01:50.772Z,13.76
2023-04-18T18:04:19.690Z,13.53
2023-04-18T18:06:54.771Z,13.68
2023-04-18T18:09:22.477Z,13.64
2023-04-18T18:11:50.104Z,13.62
2023-04-18T18:14:20.089Z,13.58
2023-04-18T18:16:47.974Z,13.12
2023-04-18T18:19:16.532Z,13.53
2023-04-18T18:21:44.376Z,13.92
2023-04-18T18:24:12.503Z,12.99
2023-04-18T18:26:40.371Z,13.03
2023-04-18T18:29:11.059Z,13.10
2023-04-18T18:31:40.386Z,13.11
2023-04-18T18:34:08.076Z,12.86
2023-04-18T18:36:35.712Z,12.85
2023-04-18T18:39:03.696Z,13.14
2023-04-18T18:41:31.357Z,12.97
2023-04-18T18:43:58.945Z,12.85
2023-04-18T18:46:27.258Z,12.18
2023-04-18T18:48:56.364Z,12.39
2023-04-18T18:51:24.077Z,12.18
2023-04-18T18:53:51.643Z,12.34
2023-04-18T18:56:19.247Z,12.36
2023-04-18T18:58:46.926Z,12.73
2023-04-18T19:01:14.612Z,12.39
2023-04-18T19:03:42.504Z,12.41
2023-04-18T19:06:11.608Z,12.78
2023-04-18T19:08:39.233Z,11.96
2023-04-18T19:11:07.033Z,12.37
2023-04-18T19:13:34.680Z,13.01
2023-04-18T19:16:02.391Z,12.37
2023-04-18T19:18:30.149Z,12.23
2023-04-18T19:20:57.822Z,12.25
2023-04-18T19:23:27.752Z,12.13
2023-04-18T19:25:55.408Z,11.90
2023-04-18T19:28:23.155Z,12.29
2023-04-18T19:30:51.133Z,12.76
2023-04-18T19:33:19.680Z,11.57
2023-04-18T19:35:47.341Z,11.60
2023-04-18T19:38:14.997Z,11.99
2023-04-18T19:40:44.065Z,11.73
2023-04-18T19:43:11.849Z,11.89
2023-04-18T19:45:39.641Z,12.08
2023-04-18T19:48:07.552Z,11.35
2023-04-18T19:50:35.282Z,11.82
2023-04-18T19:53:03.009Z,11.72
2023-04-18T19:55:31.041Z,11.24
2023-04-18T19:58:00.516Z,11.36
2023-04-18T20:00:29.320Z,11.46
2023-04-18T20:02:58.580Z,11.24
2023-04-18T20:05:26.460Z,11.34
2023-04-18T20:07:54.101Z,11.06
2023-04-18T20:10:22.330Z,11.22
2023-04-18T20:12:50.162Z,11.45
2023-04-18T20:15:19.491Z,11.37
2023-04-18T20:17:47.193Z,11.31
2023-04-18T20:20:15.082Z,11.31
2023-04-18T20:22:44.687Z,11.58
2023-04-18T20:25:12.333Z,11.23
2023-04-18T20:27:40.047Z,11.11
2023-04-18T20:30:08.602Z,11.11
2023-04-18T20:32:37.640Z,11.33
2023-04-18T20:35:05.899Z,11.52
2023-04-18T20:37:36.881Z,11.15
2023-04-18T20:40:07.933Z,11.46
2023-04-18T20:42:36.629Z,11.71
2023-04-18T20:45:04.414Z,11.38
2023-04-18T20:47:32.049Z,11.36
2023-04-18T20:50:01.160Z,11.60
2023-04-18T20:52:28.871Z,11.37
2023-04-18T20:54:56.483Z,11.06
2023-04-18T20:57:24.081Z,11.01
2023-04-18T20:59:51.733Z,11.00
2023-04-18T21:02:19.424Z,10.77
2023-04-18T21:04:47.660Z,11.69
2023-04-18T21:07:16.673Z,11.17
2023-04-18T21:09:44.304Z,11.15
2023-04-18T21:12:11.974Z,10.96
2023-04-18T21:14:39.947Z,10.85
2023-04-18T21:17:09.557Z,11.20
2023-04-18T21:19:37.651Z,10.72
2023-04-18T21:22:05.249Z,10.84
2023-04-18T21:24:34.300Z,10.49
2023-04-18T21:27:02.472Z,10.83
2023-04-18T21:29:30.123Z,10.97
2023-04-18T21:31:57.791Z,10.56
2023-04-18T21:34:25.480Z,10.53
2023-04-18T21:36:53.153Z,10.55
2023-04-18T21:39:20.774Z,10.75
2023-04-18T21:41:49.756Z,10.89
2023-04-18T21:44:18.687Z,10.15
2023-04-18T21:47:23.477Z,10.70
2023-04-18T21:49:51.150Z,10.13
2023-04-18T21:52:18.859Z,10.87
2023-04-18T21:54:46.497Z,11.07
2023-04-18T21:57:15.507Z,10.18
2023-04-18T21:59:43.154Z,10.07
2023-04-18T22:02:10.853Z,10.18
2023-04-18T22:04:42.500Z,10.78
2023-04-18T22:07:11.356Z,10.42
2023-04-18T22:09:39.743Z,10.01
2023-04-18T22:12:07.735Z,9.82
2023-04-18T22:14:36.743Z,10.06
2023-04-18T22:17:04.732Z,10.03
2023-04-18T22:19:32.445Z,9.68
2023-04-18T22:22:00.067Z,9.55
2023-04-18T22:24:27.736Z,9.91
2023-04-18T22:26:55.384Z,10.03
2023-04-18T22:29:22.994Z,10.30
2023-04-18T22:31:52.007Z,9.88
2023-04-18T22:34:19.634Z,9.90
2023-04-18T22:36:47.556Z,9.67
2023-04-18T22:39:15.341Z,10.00
2023-04-18T22:41:42.962Z,10.40
2023-04-18T22:44:10.638Z,10.00
2023-04-18T22:46:39.239Z,9.38
2023-04-18T22:49:08.260Z,9.77
2023-04-18T22:51:35.901Z,9.76
2023-04-18T22:54:03.536Z,9.61
2023-04-18T22:56:31.271Z,9.58
2023-04-18T22:58:58.908Z,9.71
2023-04-18T23:01:26.813Z,9.97
2023-04-18T23:03:54.725Z,9.75
2023-04-18T23:06:23.943Z,9.39
2023-04-18T23:08:51.614Z,9.79
2023-04-18T23:11:19.220Z,9.78
2023-04-18T23:13:46.818Z,9.37
2023-04-18T23:16:14.428Z,9.19
2023-04-18T23:18:42.163Z,8.94
2023-04-18T23:21:09.802Z,9.56
2023-04-18T23:23:38.843Z,8.63
2023-04-18T23:26:13.850Z,9.08
2023-04-18T23:28:42.172Z,9.43
2023-04-18T23:31:10.380Z,9.42
2023-04-18T23:33:38.066Z,9.92
2023-04-18T23:36:06.517Z,9.66
2023-04-18T23:38:37.108Z,10.06
2023-04-18T23:41:06.337Z,9.66
2023-04-18T23:43:34.338Z,8.92
2023-04-18T23:46:02.128Z,9.03
2023-04-18T23:48:29.770Z,9.68
2023-04-18T23:50:57.425Z,9.07
2023-04-18T23:53:25.260Z,9.44
2023-04-18T23:55:54.504Z,9.66
2023-04-18T23:58:23.492Z,8.89
